Accueil
METAR-TAF:

METAR-TAF

Aéroports :

Cambridge, Angleterre

Aéroport international de Cambridge

latitude: 52-12N, longitude: 000-11E, altitude: 15 m

Observation

Le bulletin a été fait il y a 26 minutes, à 09:50 UTC
Vent 9 kt de nord/nord-ouest
Température 9°C
Humidité 66%
Pression 1017 hPa
Visibilité 10 km ou plus
Quelques nuages à une hauteur de 2500 ft
Nuages fragmentés à une hauteur de 3400 ft

METAR: EGSC 280950Z 33009KT 9999 FEW025 BKN034 09/03 Q1017

Heure: 11:16 (10:16 UTC)

Prévision

Le bulletin a été fait il y a 2 heures et 17 minutes, à 07:59 UTC
Prévision valable du 28 à 09 UTC au 28 à 18 UTC
Vent 6 kt de nord/nord-ouest
Visibilité 10 km ou plus
Quelques nuages à une hauteur de 2500 ft
Nuages épars à une hauteur de 4500 ft

TAF: EGSC 280759Z 2809/2818 34006KT 9999 FEW025 SCT045

Observations et prévisions météorologiques de plus de 4000 aéroports (messages METAR et TAF).

Les stations disponibles sont représentées par des disques jaunes et rouges sur la carte.

Passer la souris dessus pour voir le nom de la station.

Cliquer dessus pour voir les observations et prévisions météorologiques.

Pour changer de carte: cliquez sur les boutons verts avec une croix noire pour zoomer, sur le bouton vert avec un tiret pour effectuer un zoom arrière, ou sur les flèches vertes pour les cartes adjacentes.


METAR-TAF: